Time;durP1;ratioP1;P1;durP2;ratioP2;P2;SDS_P1;SDS_P2;PMS_P1;PMS_P2;Temp;Humidity;BMP_temperature;BMP_pressure;BME280_temperature;BME280_humidity;BME280_pressure;Samples;Min_cycle;Max_cycle;Signal;HPM_P1;HPM_P2
2023/06/14 00:00:43;;;;;;;3.22;2.33;;;16.50;85.30;;;;;;5081744;28;20108;-35
2023/06/14 00:03:10;;;;;;;4.07;2.50;;;16.40;85.80;;;;;;5082205;28;20055;-35
2023/06/14 00:05:42;;;;;;;5.07;2.50;;;16.40;86.10;;;;;;5058799;28;20036;-35
2023/06/14 00:08:09;;;;;;;5.50;2.47;;;16.30;86.60;;;;;;5084620;28;20032;-36
2023/06/14 00:10:35;;;;;;;5.25;2.67;;;16.30;86.20;;;;;;5079456;28;20042;-34
2023/06/14 00:13:04;;;;;;;3.80;2.63;;;16.30;88.00;;;;;;5084682;28;20040;-35
2023/06/14 00:15:34;;;;;;;5.03;2.70;;;16.20;88.00;;;;;;5082288;28;20039;-33
2023/06/14 00:18:00;;;;;;;4.28;2.67;;;16.20;89.40;;;;;;5090279;28;20508;-37
2023/06/14 00:20:33;;;;;;;4.55;2.45;;;16.20;88.60;;;;;;5081395;28;20036;-36
2023/06/14 00:23:02;;;;;;;5.47;2.90;;;16.10;89.80;;;;;;5082063;28;20509;-35
2023/06/14 00:25:28;;;;;;;3.75;2.40;;;16.10;90.60;;;;;;5075916;28;20344;-36
2023/06/14 00:27:55;;;;;;;3.30;2.80;;;16.00;90.40;;;;;;5082268;28;20032;-38
2023/06/14 00:30:21;;;;;;;6.00;2.67;;;16.00;91.10;;;;;;5089215;28;20044;-35
2023/06/14 00:32:47;;;;;;;5.63;2.90;;;16.00;91.50;;;;;;5078050;28;20073;-36
2023/06/14 00:35:13;;;;;;;5.57;2.63;;;16.00;91.50;;;;;;5074634;28;20493;-34
2023/06/14 00:37:39;;;;;;;3.92;2.35;;;15.90;91.90;;;;;;5075914;28;20039;-34
2023/06/14 00:40:06;;;;;;;5.40;2.92;;;15.90;92.20;;;;;;5073949;28;20032;-38
2023/06/14 00:42:32;;;;;;;4.63;2.50;;;15.80;92.50;;;;;;5087615;28;20375;-35
2023/06/14 00:44:59;;;;;;;2.78;2.35;;;15.80;92.50;;;;;;5079739;28;20042;-35
2023/06/14 00:47:26;;;;;;;6.10;2.97;;;15.80;93.10;;;;;;5048835;28;20039;-36
2023/06/14 00:49:54;;;;;;;4.22;2.28;;;15.70;93.30;;;;;;5054972;28;20037;-35
2023/06/14 00:52:20;;;;;;;4.40;2.38;;;15.70;93.70;;;;;;5077749;28;20039;-35
2023/06/14 00:54:46;;;;;;;4.78;2.42;;;15.70;94.00;;;;;;5083816;28;20071;-35
2023/06/14 00:57:12;;;;;;;3.10;2.50;;;15.60;94.60;;;;;;5083113;28;20074;-35
2023/06/14 00:59:46;;;;;;;3.05;2.30;;;15.60;95.00;;;;;;5085357;28;20059;-35
2023/06/14 01:02:14;;;;;;;5.68;2.72;;;15.60;95.50;;;;;;5079482;28;20032;-36
2023/06/14 01:04:45;;;;;;;5.07;2.70;;;15.60;95.70;;;;;;5072348;28;20115;-36
2023/06/14 01:07:45;;;;;;;5.10;2.90;;;15.50;95.80;;;;;;5083547;28;20044;-35
2023/06/14 01:10:40;;;;;;;6.18;2.50;;;15.50;97.20;;;;;;5077461;28;20523;-35
2023/06/14 01:13:32;;;;;;;3.50;2.40;;;15.50;96.70;;;;;;4997963;28;20119;-36
2023/06/14 01:15:58;;;;;;;3.75;2.50;;;15.40;98.50;;;;;;5077862;28;20035;-34
2023/06/14 01:18:25;;;;;;;3.13;2.55;;;15.40;97.90;;;;;;5080658;28;20039;-37
2023/06/14 01:20:54;;;;;;;4.45;2.30;;;15.40;97.90;;;;;;5080332;28;20060;-35
2023/06/14 01:23:21;;;;;;;6.20;2.78;;;15.30;98.30;;;;;;5088689;28;20035;-36
2023/06/14 01:25:52;;;;;;;3.92;2.50;;;15.30;98.80;;;;;;5076957;28;20048;-35
2023/06/14 01:28:20;;;;;;;3.63;2.70;;;15.30;99.70;;;;;;5066263;28;20654;-36
2023/06/14 01:30:53;;;;;;;3.72;2.40;;;15.20;99.60;;;;;;5081881;28;20040;-35
2023/06/14 01:33:21;;;;;;;4.00;2.60;;;15.20;99.90;;;;;;5079806;28;20040;-35
2023/06/14 01:35:50;;;;;;;6.15;2.53;;;15.20;99.80;;;;;;5084831;28;20090;-36
2023/06/14 01:38:19;;;;;;;3.97;2.60;;;15.20;99.90;;;;;;5083248;28;20123;-35
2023/06/14 01:40:45;;;;;;;3.10;2.58;;;15.20;99.90;;;;;;5085481;28;20028;-36
2023/06/14 01:43:14;;;;;;;5.10;2.55;;;15.10;99.90;;;;;;5075302;28;20043;-36
2023/06/14 01:45:42;;;;;;;6.75;2.47;;;15.10;99.90;;;;;;5086301;28;20029;-35
2023/06/14 01:48:08;;;;;;;4.50;2.75;;;15.10;99.90;;;;;;5082444;28;20482;-35
2023/06/14 01:50:34;;;;;;;4.60;2.58;;;15.10;99.90;;;;;;5087405;28;20119;-36
2023/06/14 01:53:00;;;;;;;5.35;2.25;;;15.00;99.90;;;;;;5079358;28;20035;-36
2023/06/14 01:55:26;;;;;;;4.95;2.45;;;15.00;99.90;;;;;;5105018;28;20088;-36
2023/06/14 01:57:52;;;;;;;5.80;2.80;;;14.90;99.90;;;;;;5063486;28;20042;-34
2023/06/14 02:00:19;;;;;;;6.32;2.70;;;14.90;99.90;;;;;;5076481;28;20041;-35
2023/06/14 02:02:45;;;;;;;10.45;2.42;;;14.90;99.90;;;;;;5077694;28;20043;-36
2023/06/14 02:05:11;;;;;;;5.85;3.15;;;14.90;99.90;;;;;;5077209;28;20037;-35
2023/06/14 02:07:37;;;;;;;3.28;2.65;;;14.80;99.90;;;;;;5106665;28;20073;-36
2023/06/14 02:10:05;;;;;;;2.65;2.45;;;14.80;99.90;;;;;;5087097;28;20032;-35
2023/06/14 02:12:31;;;;;;;3.03;2.72;;;14.80;99.90;;;;;;5078745;28;20043;-34
2023/06/14 02:14:57;;;;;;;4.53;2.70;;;14.70;99.90;;;;;;5067991;28;20036;-36
2023/06/14 02:17:23;;;;;;;4.07;2.58;;;14.70;99.90;;;;;;5086376;28;20046;-35
2023/06/14 02:19:50;;;;;;;5.03;2.65;;;14.70;99.90;;;;;;5073874;28;20036;-34
2023/06/14 02:22:16;;;;;;;3.83;2.63;;;14.60;99.90;;;;;;5074128;28;20436;-36
2023/06/14 02:24:43;;;;;;;6.68;3.20;;;14.60;99.90;;;;;;5080391;28;20043;-37
2023/06/14 02:27:12;;;;;;;3.33;2.60;;;14.60;99.90;;;;;;5088080;28;20036;-34
2023/06/14 02:29:37;;;;;;;4.70;2.60;;;14.50;99.90;;;;;;5100493;28;20031;-33
2023/06/14 02:32:04;;;;;;;3.72;2.78;;;14.50;99.90;;;;;;5074952;28;20136;-36
2023/06/14 02:34:30;;;;;;;3.65;2.30;;;14.50;99.90;;;;;;5072460;28;20042;-35
2023/06/14 02:36:57;;;;;;;5.15;2.55;;;14.50;99.90;;;;;;5076295;28;20416;-33
2023/06/14 02:39:23;;;;;;;3.28;2.63;;;14.40;99.90;;;;;;5081539;28;20048;-34
2023/06/14 02:41:50;;;;;;;5.88;2.72;;;14.40;99.90;;;;;;5078512;28;20070;-36
2023/06/14 02:44:18;;;;;;;4.53;2.70;;;14.40;99.90;;;;;;5087853;28;20036;-35
2023/06/14 02:46:44;;;;;;;5.30;2.50;;;14.40;99.90;;;;;;5084519;28;20036;-35
2023/06/14 02:49:13;;;;;;;3.50;2.65;;;14.30;99.90;;;;;;5077106;28;20040;-35
2023/06/14 02:51:40;;;;;;;5.03;2.67;;;14.30;99.90;;;;;;5080411;28;20077;-35
2023/06/14 02:54:05;;;;;;;4.32;2.58;;;14.30;99.90;;;;;;5086918;28;20696;-36
2023/06/14 02:56:31;;;;;;;5.70;3.00;;;14.30;99.90;;;;;;5072561;28;20043;-35
2023/06/14 02:58:57;;;;;;;3.05;2.75;;;14.20;99.90;;;;;;5084389;28;20039;-37
2023/06/14 03:01:33;;;;;;;4.57;2.90;;;14.20;99.90;;;;;;5076930;28;20032;-33
2023/06/14 03:03:59;;;;;;;4.50;2.80;;;14.20;99.90;;;;;;5079743;28;20069;-36
2023/06/14 03:06:25;;;;;;;4.13;3.03;;;14.20;99.90;;;;;;5077105;28;20028;-34
2023/06/14 03:08:51;;;;;;;4.63;2.65;;;14.10;99.90;;;;;;5083396;28;20039;-36
2023/06/14 03:11:20;;;;;;;7.20;2.90;;;14.10;99.90;;;;;;5081964;28;20032;-35
2023/06/14 03:13:46;;;;;;;2.70;2.50;;;14.10;99.90;;;;;;5083937;28;20032;-36
2023/06/14 03:16:12;;;;;;;5.82;2.78;;;14.10;99.90;;;;;;5078756;28;20031;-36
2023/06/14 03:18:38;;;;;;;5.63;2.90;;;14.10;99.90;;;;;;5079595;28;20039;-37
2023/06/14 03:21:04;;;;;;;6.88;3.08;;;14.10;99.90;;;;;;5086135;28;20055;-35
2023/06/14 03:23:31;;;;;;;4.15;2.92;;;14.10;99.90;;;;;;5081126;28;20032;-35
2023/06/14 03:25:57;;;;;;;5.63;3.35;;;14.10;99.90;;;;;;5085302;28;20040;-35
2023/06/14 03:28:23;;;;;;;3.75;2.45;;;14.00;99.90;;;;;;5082560;28;20043;-35
2023/06/14 03:30:48;;;;;;;3.13;2.72;;;14.00;99.90;;;;;;5077308;28;20066;-35
2023/06/14 03:33:15;;;;;;;5.90;2.90;;;14.00;99.90;;;;;;5064217;28;20048;-37
2023/06/14 03:35:41;;;;;;;3.88;3.15;;;14.00;99.90;;;;;;5082039;28;20042;-34
2023/06/14 03:38:07;;;;;;;4.35;2.80;;;14.10;99.90;;;;;;5085785;28;20031;-37
2023/06/14 03:40:32;;;;;;;5.38;2.92;;;14.00;99.90;;;;;;5080377;28;20093;-36
2023/06/14 03:42:58;;;;;;;5.38;3.10;;;14.00;99.90;;;;;;5086311;28;20374;-37
2023/06/14 03:45:24;;;;;;;3.67;2.90;;;14.00;99.90;;;;;;5080706;28;21394;-37
2023/06/14 03:47:50;;;;;;;5.07;3.28;;;14.00;99.90;;;;;;5088790;28;20042;-34
2023/06/14 03:50:18;;;;;;;4.00;2.90;;;14.00;99.90;;;;;;5084184;28;20040;-33
2023/06/14 03:52:44;;;;;;;4.63;3.47;;;14.00;99.90;;;;;;5083083;28;20515;-36
2023/06/14 03:55:13;;;;;;;6.30;3.28;;;14.00;99.90;;;;;;5074018;28;20112;-36
2023/06/14 03:57:38;;;;;;;3.75;3.08;;;14.10;99.90;;;;;;5072954;28;20141;-34
2023/06/14 04:00:05;;;;;;;4.43;2.80;;;14.10;99.90;;;;;;5081031;28;20122;-35
2023/06/14 04:02:31;;;;;;;4.65;3.30;;;14.10;99.90;;;;;;5086108;28;20031;-37
2023/06/14 04:04:57;;;;;;;3.10;2.80;;;14.10;99.90;;;;;;5081440;28;20384;-37
2023/06/14 04:07:23;;;;;;;4.22;3.10;;;14.10;99.90;;;;;;5083625;28;20032;-36
2023/06/14 04:09:49;;;;;;;4.60;3.20;;;14.20;99.90;;;;;;5082453;28;20047;-36
2023/06/14 04:12:14;;;;;;;3.85;3.25;;;14.20;99.90;;;;;;5087788;28;20039;-36
2023/06/14 04:14:40;;;;;;;5.28;3.63;;;14.20;99.90;;;;;;5075358;28;20036;-34
2023/06/14 04:17:06;;;;;;;3.88;3.17;;;14.20;99.90;;;;;;5078204;28;20052;-35
2023/06/14 04:19:32;;;;;;;4.20;3.38;;;14.30;99.90;;;;;;5079101;28;20492;-39
2023/06/14 04:22:02;;;;;;;4.88;3.47;;;14.30;99.90;;;;;;5062365;28;20059;-36
2023/06/14 04:24:34;;;;;;;5.85;3.40;;;14.30;99.90;;;;;;5087050;28;20027;-36
2023/06/14 04:27:03;;;;;;;4.55;3.28;;;14.40;99.90;;;;;;5062679;28;20032;-36
2023/06/14 04:29:29;;;;;;;6.47;3.38;;;14.40;99.90;;;;;;5066595;28;20036;-36
2023/06/14 04:31:58;;;;;;;3.28;2.97;;;14.40;99.90;;;;;;5064688;28;20043;-35
2023/06/14 04:34:29;;;;;;;4.13;3.20;;;14.50;99.90;;;;;;5064612;28;20543;-37
2023/06/14 04:36:58;;;;;;;5.00;3.40;;;14.50;99.90;;;;;;5074998;28;20469;-35
2023/06/14 04:39:25;;;;;;;5.45;3.25;;;14.60;99.90;;;;;;5076769;28;20465;-35
2023/06/14 04:41:56;;;;;;;5.45;3.50;;;14.70;99.90;;;;;;5079781;28;20116;-36
2023/06/14 04:44:29;;;;;;;5.65;3.40;;;14.70;99.90;;;;;;5083174;28;20098;-36
2023/06/14 04:46:58;;;;;;;4.75;3.53;;;14.70;99.90;;;;;;5062949;28;20499;-35
2023/06/14 04:49:24;;;;;;;5.03;3.72;;;14.80;99.90;;;;;;5071745;28;20039;-35
2023/06/14 04:51:57;;;;;;;4.47;3.40;;;14.90;99.90;;;;;;5058080;28;20340;-36
2023/06/14 04:54:25;;;;;;;4.97;3.42;;;14.90;99.90;;;;;;5067620;28;20049;-35
2023/06/14 04:56:53;;;;;;;5.28;3.45;;;15.00;99.90;;;;;;5067970;28;20039;-36
2023/06/14 04:59:19;;;;;;;4.55;3.17;;;15.00;99.90;;;;;;5077784;28;20035;-36
2023/06/14 05:01:47;;;;;;;3.53;3.13;;;15.10;99.90;;;;;;5059234;28;20082;-35
2023/06/14 05:04:15;;;;;;;4.35;3.85;;;15.20;99.90;;;;;;5077927;28;20044;-36
2023/06/14 05:06:44;;;;;;;4.97;3.17;;;15.30;99.90;;;;;;5064735;28;20110;-35
2023/06/14 05:09:13;;;;;;;4.50;3.22;;;15.40;99.90;;;;;;5070853;28;20127;-36
2023/06/14 05:11:39;;;;;;;6.93;3.58;;;15.50;99.90;;;;;;5064362;28;20039;-35
2023/06/14 05:14:06;;;;;;;6.68;3.42;;;15.50;99.90;;;;;;5064945;28;20116;-36
2023/06/14 05:16:31;;;;;;;5.15;3.63;;;15.60;99.90;;;;;;5066153;28;20493;-35
2023/06/14 05:18:58;;;;;;;5.90;3.92;;;15.70;99.90;;;;;;5068377;28;20067;-34
2023/06/14 05:21:23;;;;;;;4.20;3.15;;;15.80;99.90;;;;;;5052435;28;20050;-37
2023/06/14 05:23:51;;;;;;;4.70;3.65;;;15.90;99.90;;;;;;5055991;28;20040;-36
2023/06/14 05:26:16;;;;;;;5.72;3.20;;;16.00;99.90;;;;;;5062951;28;20041;-39
2023/06/14 05:28:42;;;;;;;3.95;3.38;;;16.10;99.90;;;;;;5064806;28;20036;-36
2023/06/14 05:31:08;;;;;;;4.68;3.25;;;16.20;99.90;;;;;;5062468;28;20040;-36
2023/06/14 05:33:34;;;;;;;7.43;3.97;;;16.30;99.90;;;;;;5056882;28;20035;-35
2023/06/14 05:35:59;;;;;;;5.70;3.55;;;16.30;99.90;;;;;;5072239;28;20546;-38
2023/06/14 05:38:25;;;;;;;5.00;4.22;;;16.50;99.90;;;;;;5067576;28;20035;-36
2023/06/14 05:40:51;;;;;;;5.07;3.30;;;16.60;99.90;;;;;;5064147;28;20115;-35
2023/06/14 05:43:16;;;;;;;4.43;3.50;;;16.70;99.90;;;;;;5068877;28;20036;-34
2023/06/14 05:45:42;;;;;;;5.82;3.78;;;16.90;99.90;;;;;;5069803;28;20039;-36
2023/06/14 05:48:08;;;;;;;3.55;3.25;;;16.90;99.90;;;;;;5069477;28;20487;-36
2023/06/14 05:50:34;;;;;;;5.75;3.55;;;17.10;99.90;;;;;;5056146;28;20051;-38
2023/06/14 05:53:00;;;;;;;6.32;3.25;;;17.20;99.90;;;;;;5058178;28;20141;-36
2023/06/14 05:55:27;;;;;;;5.13;3.00;;;17.20;99.90;;;;;;5061722;28;20044;-36
2023/06/14 05:57:53;;;;;;;4.18;3.22;;;17.40;99.90;;;;;;5042501;28;20036;-34
2023/06/14 06:00:19;;;;;;;5.55;3.42;;;17.50;99.90;;;;;;5060880;28;20054;-35
2023/06/14 06:02:47;;;;;;;4.95;3.00;;;17.60;99.90;;;;;;5078006;28;20035;-33
2023/06/14 06:05:13;;;;;;;7.18;3.30;;;17.70;99.90;;;;;;5063133;28;20496;-35
2023/06/14 06:07:40;;;;;;;7.57;3.05;;;17.80;99.90;;;;;;5071957;28;20051;-37
2023/06/14 06:10:06;;;;;;;5.10;2.80;;;17.90;99.90;;;;;;5063136;28;20044;-35
2023/06/14 06:12:32;;;;;;;8.80;3.28;;;18.00;99.90;;;;;;5053194;28;20066;-35
2023/06/14 06:14:59;;;;;;;3.20;2.90;;;18.10;99.90;;;;;;5056852;28;20040;-35
2023/06/14 06:17:25;;;;;;;4.63;2.90;;;18.20;99.90;;;;;;5075726;28;20036;-35
2023/06/14 06:19:51;;;;;;;4.07;2.90;;;18.30;99.90;;;;;;5065058;28;20036;-35
2023/06/14 06:22:17;;;;;;;3.35;3.05;;;18.50;99.90;;;;;;5073527;28;20039;-35
2023/06/14 06:24:43;;;;;;;3.33;2.83;;;18.50;99.90;;;;;;5072922;28;20174;-35
2023/06/14 06:27:09;;;;;;;3.25;2.92;;;18.70;99.90;;;;;;5065596;28;20043;-36
2023/06/14 06:29:35;;;;;;;3.22;2.95;;;18.80;99.90;;;;;;5048465;28;20044;-35
2023/06/14 06:32:02;;;;;;;7.72;3.47;;;18.90;99.90;;;;;;5049089;28;20401;-35
2023/06/14 06:34:28;;;;;;;5.82;3.20;;;19.00;99.90;;;;;;5053698;28;20047;-36
2023/06/14 06:36:55;;;;;;;7.45;2.65;;;19.10;99.90;;;;;;5068155;28;20482;-35
2023/06/14 06:39:20;;;;;;;6.32;2.75;;;19.20;99.90;;;;;;5062039;28;20701;-36
2023/06/14 06:41:46;;;;;;;4.93;2.80;;;19.30;99.90;;;;;;5073715;28;20113;-35
2023/06/14 06:44:12;;;;;;;4.00;2.55;;;19.40;99.90;;;;;;5059030;28;20041;-33
2023/06/14 06:46:42;;;;;;;4.07;3.08;;;19.60;99.90;;;;;;5073579;28;20043;-36
2023/06/14 06:49:09;;;;;;;4.13;2.58;;;19.70;99.90;;;;;;5072443;28;20029;-35
2023/06/14 06:51:38;;;;;;;4.95;2.70;;;19.80;99.90;;;;;;5076665;28;20068;-34
2023/06/14 06:54:05;;;;;;;4.40;2.80;;;19.90;99.90;;;;;;5074651;28;20097;-35
2023/06/14 06:56:31;;;;;;;5.47;2.90;;;20.00;99.90;;;;;;5064719;28;20037;-39
2023/06/14 06:58:57;;;;;;;3.83;2.72;;;20.20;99.90;;;;;;5076172;28;20396;-33
2023/06/14 07:01:24;;;;;;;3.08;2.78;;;20.30;99.70;;;;;;5072178;28;20197;-35
2023/06/14 07:03:50;;;;;;;3.97;2.70;;;20.40;98.80;;;;;;5092971;28;20114;-35
2023/06/14 07:06:18;;;;;;;4.53;2.80;;;20.40;98.10;;;;;;5071928;28;20115;-36
2023/06/14 07:08:44;;;;;;;3.33;3.03;;;20.50;96.60;;;;;;5075367;28;20058;-35
2023/06/14 07:11:10;;;;;;;2.70;2.35;;;20.60;96.00;;;;;;5086686;28;20032;-34
2023/06/14 07:13:36;;;;;;;3.20;2.42;;;20.70;95.60;;;;;;5081256;28;20043;-35
2023/06/14 07:16:02;;;;;;;3.63;2.25;;;20.80;94.30;;;;;;5074410;28;20039;-34
2023/06/14 07:18:28;;;;;;;5.10;2.50;;;20.80;93.30;;;;;;5064317;28;20045;-34
2023/06/14 07:20:54;;;;;;;4.38;2.83;;;20.90;92.90;;;;;;5063151;28;20108;-35
2023/06/14 07:23:20;;;;;;;4.78;2.63;;;21.00;93.40;;;;;;5069087;28;20039;-35
2023/06/14 07:25:46;;;;;;;2.88;2.53;;;21.10;93.00;;;;;;5060717;28;20040;-35
2023/06/14 07:28:12;;;;;;;3.40;2.58;;;21.20;92.10;;;;;;5098250;28;20040;-35
2023/06/14 07:30:38;;;;;;;3.35;2.45;;;21.30;92.40;;;;;;5082997;28;20069;-33
2023/06/14 07:33:03;;;;;;;3.67;2.55;;;21.50;91.90;;;;;;5076911;28;20074;-36
2023/06/14 07:35:29;;;;;;;7.22;2.50;;;21.60;91.10;;;;;;5071573;28;20630;-36
2023/06/14 07:37:55;;;;;;;2.47;2.20;;;21.70;90.00;;;;;;5066825;28;20394;-34
2023/06/14 07:40:21;;;;;;;5.30;2.40;;;21.80;88.60;;;;;;5067584;28;20379;-36
2023/06/14 07:42:47;;;;;;;3.42;2.30;;;22.00;87.40;;;;;;5066677;28;20028;-38
2023/06/14 07:45:16;;;;;;;3.65;2.15;;;22.00;84.20;;;;;;5072548;28;20065;-36
2023/06/14 07:47:42;;;;;;;2.67;2.47;;;22.00;81.70;;;;;;5064440;28;20398;-33
2023/06/14 07:50:08;;;;;;;2.40;2.20;;;22.00;79.60;;;;;;5078230;28;20031;-35
2023/06/14 07:52:34;;;;;;;3.97;2.38;;;22.00;77.90;;;;;;5090902;28;20031;-34
2023/06/14 07:55:00;;;;;;;5.45;2.42;;;22.20;78.30;;;;;;5098796;28;20075;-35
2023/06/14 07:57:26;;;;;;;4.25;2.25;;;22.40;78.00;;;;;;5075179;28;20173;-36
2023/06/14 07:59:52;;;;;;;3.85;2.40;;;22.60;77.30;;;;;;5075093;28;20485;-36
2023/06/14 08:02:18;;;;;;;4.75;2.28;;;22.60;75.80;;;;;;5048627;28;20044;-36
2023/06/14 08:04:43;;;;;;;2.92;2.28;;;22.70;73.50;;;;;;5061947;28;20043;-36
2023/06/14 08:07:09;;;;;;;2.63;2.30;;;22.80;71.10;;;;;;5077100;28;20390;-37
2023/06/14 08:09:37;;;;;;;3.33;2.10;;;22.90;69.60;;;;;;5061723;28;20043;-35
2023/06/14 08:12:09;;;;;;;3.42;2.17;;;23.00;68.40;;;;;;5059461;28;20036;-34
2023/06/14 08:14:35;;;;;;;4.82;2.33;;;23.10;67.80;;;;;;5072928;28;20032;-35
2023/06/14 08:17:01;;;;;;;6.45;2.42;;;23.10;67.10;;;;;;5081710;28;20036;-36
2023/06/14 08:19:28;;;;;;;5.85;2.67;;;23.20;66.40;;;;;;5060658;28;20047;-36
2023/06/14 08:21:55;;;;;;;6.78;3.13;;;23.30;65.70;;;;;;5065669;28;20051;-35
2023/06/14 08:24:24;;;;;;;3.85;2.47;;;23.40;65.80;;;;;;5049015;28;20519;-38
2023/06/14 08:26:50;;;;;;;5.82;2.22;;;23.70;65.50;;;;;;5061190;28;20085;-36
2023/06/14 08:29:16;;;;;;;2.72;2.30;;;23.80;63.00;;;;;;5069244;28;20438;-36
2023/06/14 08:31:41;;;;;;;2.80;2.10;;;23.80;62.90;;;;;;5069753;28;20066;-36
2023/06/14 08:34:07;;;;;;;2.78;2.20;;;24.00;62.70;;;;;;5066843;28;20067;-34
2023/06/14 08:36:34;;;;;;;6.20;2.17;;;24.00;62.10;;;;;;5078612;28;20035;-35
2023/06/14 08:39:00;;;;;;;2.08;1.80;;;24.10;61.20;;;;;;5082168;28;20036;-35
2023/06/14 08:41:29;;;;;;;2.13;1.90;;;24.20;60.80;;;;;;5081747;28;20098;-34
2023/06/14 08:43:56;;;;;;;4.03;1.92;;;24.20;60.10;;;;;;5065166;28;20036;-36
2023/06/14 08:46:27;;;;;;;1.70;1.58;;;24.20;59.10;;;;;;5060662;28;20033;-33
2023/06/14 08:48:58;;;;;;;2.13;1.48;;;24.40;58.80;;;;;;5074944;28;20071;-37
2023/06/14 08:51:26;;;;;;;3.58;1.60;;;24.50;57.80;;;;;;5073874;28;20039;-38
2023/06/14 08:53:57;;;;;;;1.70;1.55;;;24.50;57.70;;;;;;5070712;28;20032;-36
2023/06/14 08:56:30;;;;;;;1.85;1.70;;;24.60;56.30;;;;;;5082359;28;20031;-36
2023/06/14 08:58:57;;;;;;;3.92;1.80;;;24.70;56.60;;;;;;5074097;28;20041;-36
2023/06/14 09:01:24;;;;;;;2.47;1.60;;;24.90;56.60;;;;;;5072755;28;20040;-36
2023/06/14 09:03:50;;;;;;;2.10;1.60;;;25.20;56.80;;;;;;5068260;28;20027;-36
2023/06/14 09:06:19;;;;;;;3.03;2.03;;;25.40;56.50;;;;;;5073993;28;20152;-33
2023/06/14 09:08:47;;;;;;;2.28;1.73;;;25.60;55.40;;;;;;5067392;28;20500;-37
2023/06/14 09:11:15;;;;;;;2.58;1.80;;;25.70;55.30;;;;;;5057579;28;20044;-36
2023/06/14 09:13:41;;;;;;;4.30;1.75;;;25.80;55.00;;;;;;5065169;28;20130;-34
2023/06/14 09:16:08;;;;;;;2.65;1.85;;;25.80;53.30;;;;;;5071041;28;20043;-36
2023/06/14 09:18:38;;;;;;;1.90;1.50;;;25.60;52.80;;;;;;5069260;28;20486;-36
2023/06/14 09:21:10;;;;;;;1.73;1.60;;;25.60;52.50;;;;;;5063992;28;20072;-37
2023/06/14 09:23:40;;;;;;;2.55;1.60;;;25.70;52.50;;;;;;5072097;28;20024;-35
2023/06/14 09:26:14;;;;;;;3.35;1.70;;;25.60;52.10;;;;;;5076112;28;20150;-35
2023/06/14 09:28:44;;;;;;;1.55;1.45;;;25.70;52.30;;;;;;5064413;28;20106;-36
2023/06/14 09:31:15;;;;;;;2.20;1.65;;;25.80;52.80;;;;;;5073525;28;20123;-37
2023/06/14 09:33:47;;;;;;;2.20;1.45;;;26.00;51.60;;;;;;5073501;28;20047;-36
2023/06/14 09:36:20;;;;;;;2.15;1.52;;;26.00;51.70;;;;;;5068016;28;20040;-35
2023/06/14 09:38:59;;;;;;;;;;;26.10;51.60;;;;;;5054132;28;20502;-36
2023/06/14 09:41:39;;;;;;;1.90;1.52;;;26.10;49.80;;;;;;5068464;28;19965;-37
2023/06/14 09:44:09;;;;;;;2.15;1.70;;;26.30;51.00;;;;;;5073872;28;20028;-37
2023/06/14 09:46:36;;;;;;;5.00;1.70;;;26.40;52.00;;;;;;5073695;28;20115;-38
2023/06/14 09:49:04;;;;;;;2.63;1.83;;;26.60;51.40;;;;;;5073552;28;20115;-36
2023/06/14 09:51:30;;;;;;;2.65;1.80;;;26.70;49.90;;;;;;5073543;28;20490;-35
2023/06/14 09:54:01;;;;;;;2.85;1.70;;;26.80;50.00;;;;;;5067724;28;20060;-38
2023/06/14 09:56:29;;;;;;;7.07;2.00;;;27.10;49.50;;;;;;5081440;28;20036;-39
2023/06/14 09:58:59;;;;;;;4.78;1.60;;;27.20;48.80;;;;;;5069598;28;20028;-39
2023/06/14 10:01:29;;;;;;;3.22;1.67;;;27.30;47.60;;;;;;5055223;28;20129;-36
2023/06/14 10:04:15;;;;;;;5.32;1.70;;;27.50;48.10;;;;;;5073275;28;20039;-36
2023/06/14 10:06:45;;;;;;;2.30;1.60;;;27.60;46.30;;;;;;5078789;28;20128;-37
2023/06/14 10:09:12;;;;;;;3.47;1.67;;;27.70;47.60;;;;;;5059003;28;20037;-36
2023/06/14 10:11:43;;;;;;;4.18;1.92;;;27.60;46.40;;;;;;5081317;28;20429;-37
2023/06/14 10:14:11;;;;;;;2.53;1.60;;;27.30;45.80;;;;;;5066464;28;20032;-35
2023/06/14 10:16:48;;;;;;;3.28;1.63;;;27.40;45.90;;;;;;5081390;28;20136;-35
2023/06/14 10:19:22;;;;;;;3.10;1.73;;;27.60;46.00;;;;;;5078730;28;20384;-33
2023/06/14 10:22:09;;;;;;;2.33;1.88;;;27.60;45.40;;;;;;5081720;28;20430;-35
2023/06/14 10:24:45;;;;;;;5.07;2.33;;;27.90;45.30;;;;;;5056794;28;20041;-35
2023/06/14 10:27:17;;;;;;;9.35;2.50;;;28.10;44.90;;;;;;5057152;28;20040;-35
2023/06/14 10:29:55;;;;;;;4.70;2.00;;;28.30;44.80;;;;;;5070524;28;20062;-33
2023/06/14 10:32:23;;;;;;;5.50;1.90;;;28.50;44.10;;;;;;5066949;28;20173;-34
2023/06/14 10:35:01;;;;;;;1.60;1.50;;;28.30;44.40;;;;;;5075582;28;20485;-35
2023/06/14 10:37:27;;;;;;;2.97;1.60;;;28.40;44.40;;;;;;5064483;28;20122;-34
2023/06/14 10:39:53;;;;;;;2.53;1.55;;;28.50;44.80;;;;;;5088389;28;20169;-32
2023/06/14 10:42:20;;;;;;;5.03;1.83;;;28.60;44.50;;;;;;5080829;28;20503;-35
2023/06/14 10:44:49;;;;;;;7.45;2.25;;;28.90;44.90;;;;;;5065079;28;20044;-35
2023/06/14 10:47:29;;;;;;;2.88;1.70;;;28.70;43.40;;;;;;5056470;28;20041;-34
2023/06/14 10:50:04;;;;;;;2.28;1.50;;;28.80;42.70;;;;;;5086975;28;20050;-35
2023/06/14 10:52:35;;;;;;;2.47;1.60;;;28.50;42.60;;;;;;5087545;28;20047;-36
2023/06/14 10:55:14;;;;;;;2.80;1.58;;;28.40;43.00;;;;;;5067501;28;20044;-38
2023/06/14 10:57:51;;;;;;;3.35;1.60;;;28.60;43.80;;;;;;5062807;28;20043;-34
2023/06/14 11:00:22;;;;;;;2.50;1.40;;;28.70;42.70;;;;;;5076594;28;20180;-36
2023/06/14 11:03:15;;;;;;;1.52;1.42;;;28.60;42.90;;;;;;5082062;28;20564;-33
2023/06/14 11:05:53;;;;;;;2.03;1.73;;;28.80;43.40;;;;;;5056231;28;20383;-35
2023/06/14 11:08:36;;;;;;;3.42;1.70;;;29.00;42.80;;;;;;5073591;28;20039;-34
2023/06/14 11:11:07;;;;;;;2.47;1.88;;;29.30;43.50;;;;;;5073512;28;20401;-34
2023/06/14 11:13:33;;;;;;;2.70;1.80;;;29.20;42.20;;;;;;5056136;28;20044;-35
2023/06/14 11:15:59;;;;;;;1.90;1.63;;;29.20;42.30;;;;;;5071072;28;20032;-34
2023/06/14 11:18:26;;;;;;;4.10;1.60;;;29.40;42.80;;;;;;5079428;28;20089;-34
2023/06/14 11:20:51;;;;;;;2.83;1.58;;;29.40;41.90;;;;;;5084584;28;20268;-34
2023/06/14 11:23:17;;;;;;;2.28;1.70;;;29.30;41.80;;;;;;5092982;28;20058;-35
2023/06/14 11:25:43;;;;;;;2.22;1.60;;;29.10;41.20;;;;;;5085014;28;20032;-36
2023/06/14 11:28:09;;;;;;;2.15;1.40;;;29.20;41.80;;;;;;5067450;28;20036;-37
2023/06/14 11:30:34;;;;;;;1.75;1.65;;;29.30;42.40;;;;;;5064316;28;20440;-33
2023/06/14 11:33:00;;;;;;;2.72;1.48;;;29.30;42.00;;;;;;5075685;28;20493;-35
2023/06/14 11:35:26;;;;;;;4.25;1.40;;;29.20;41.80;;;;;;5082573;28;20123;-32
2023/06/14 11:38:00;;;;;;;2.10;1.55;;;29.60;42.00;;;;;;5082126;28;20040;-34
2023/06/14 11:40:27;;;;;;;2.10;1.90;;;29.90;41.40;;;;;;5088975;28;20036;-34
2023/06/14 11:43:02;;;;;;;1.98;1.20;;;29.90;41.10;;;;;;5074118;28;20385;-35
2023/06/14 11:45:29;;;;;;;3.55;1.75;;;30.00;41.00;;;;;;5057133;28;20304;-35
2023/06/14 11:47:56;;;;;;;1.75;1.40;;;30.00;40.70;;;;;;5073586;28;20029;-34
2023/06/14 11:50:22;;;;;;;1.98;1.83;;;30.00;41.00;;;;;;5069435;28;20037;-35
2023/06/14 11:53:07;;;;;;;1.55;1.45;;;30.10;41.10;;;;;;5075464;28;20115;-36
2023/06/14 11:55:41;;;;;;;3.03;1.77;;;30.40;41.70;;;;;;5068736;28;20070;-32
2023/06/14 11:58:07;;;;;;;2.42;1.52;;;30.40;41.10;;;;;;5061425;28;20106;-36
2023/06/14 12:00:35;;;;;;;2.20;1.80;;;30.50;41.60;;;;;;5084499;28;20493;-35
2023/06/14 12:03:01;;;;;;;1.80;1.70;;;30.80;41.50;;;;;;5071993;28;20306;-35
2023/06/14 12:05:27;;;;;;;6.57;1.67;;;30.70;40.90;;;;;;5074993;28;20265;-36
2023/06/14 12:08:07;;;;;;;3.33;1.60;;;30.80;40.90;;;;;;5069371;28;20508;-34
2023/06/14 12:10:41;;;;;;;3.30;1.63;;;30.60;40.00;;;;;;5073227;28;20036;-36
2023/06/14 12:13:07;;;;;;;3.20;1.60;;;30.50;40.80;;;;;;5080266;28;20032;-34
2023/06/14 12:15:33;;;;;;;3.67;1.83;;;30.70;40.60;;;;;;5081290;28;20089;-36
2023/06/14 12:17:59;;;;;;;1.88;1.70;;;30.70;41.10;;;;;;5079158;28;20485;-36
2023/06/14 12:20:29;;;;;;;3.65;1.67;;;31.00;40.60;;;;;;5073365;28;20131;-35
2023/06/14 12:22:57;;;;;;;3.05;1.60;;;31.00;39.90;;;;;;5075443;28;20079;-36
2023/06/14 12:25:34;;;;;;;4.28;1.85;;;31.20;40.10;;;;;;5083123;28;20146;-36
2023/06/14 12:28:05;;;;;;;2.22;1.75;;;31.00;40.10;;;;;;5089655;28;20035;-35
2023/06/14 12:30:32;;;;;;;3.28;1.98;;;31.00;39.60;;;;;;5097557;28;20181;-37
2023/06/14 12:32:58;;;;;;;4.60;1.85;;;30.80;39.40;;;;;;5085004;28;20036;-35
2023/06/14 12:35:24;;;;;;;4.45;1.80;;;30.80;39.40;;;;;;5061033;28;20037;-36
2023/06/14 12:37:49;;;;;;;2.25;1.60;;;30.90;40.00;;;;;;5089820;28;20102;-37
2023/06/14 12:40:15;;;;;;;3.58;1.58;;;31.20;40.60;;;;;;5091183;28;20035;-35
2023/06/14 12:42:42;;;;;;;2.65;1.52;;;31.20;40.30;;;;;;5100751;28;20469;-36
2023/06/14 12:45:08;;;;;;;2.08;1.80;;;31.50;40.10;;;;;;5063696;28;20029;-36
2023/06/14 12:47:35;;;;;;;2.72;1.70;;;31.30;39.60;;;;;;5070914;28;20050;-36
2023/06/14 12:50:01;;;;;;;3.45;1.90;;;31.30;39.80;;;;;;5075879;28;20097;-37
2023/06/14 12:52:27;;;;;;;2.10;1.90;;;31.40;39.80;;;;;;5064661;28;20087;-35